sensor_id;sensor_type;location;lat;lon;timestamp;P1;P2;P0
76043;PMS7003;64740;34.694;33.088;2023-02-04T00:01:45;2;1.5;1.2
76043;PMS7003;64740;34.694;33.088;2023-02-04T00:06:25;1.2;1;0.8
76043;PMS7003;64740;34.694;33.088;2023-02-04T00:11:35;2;1.5;1.2
76043;PMS7003;64740;34.694;33.088;2023-02-04T00:16:11;0.7;0.6;0.3
76043;PMS7003;64740;34.694;33.088;2023-02-04T00:21:35;0.7;0.5;0.4
76043;PMS7003;64740;34.694;33.088;2023-02-04T00:26:59;1.2;0.7;0.5
76043;PMS7003;64740;34.694;33.088;2023-02-04T00:31:39;1.1;1;0.9
76043;PMS7003;64740;34.694;33.088;2023-02-04T00:36:47;1;1;0.8
76043;PMS7003;64740;34.694;33.088;2023-02-04T00:41:37;3.4;3;2.5
76043;PMS7003;64740;34.694;33.088;2023-02-04T00:47:02;3.7;3.4;2.9
76043;PMS7003;64740;34.694;33.088;2023-02-04T00:51:23;5.5;4.7;4
76043;PMS7003;64740;34.694;33.088;2023-02-04T00:56:32;4.7;4.5;3.9
76043;PMS7003;64740;34.694;33.088;2023-02-04T01:01:25;5.2;4.7;3.8
76043;PMS7003;64740;34.694;33.088;2023-02-04T01:06:59;4.9;4.5;3.8
76043;PMS7003;64740;34.694;33.088;2023-02-04T01:11:11;2.9;2.9;2.3
76043;PMS7003;64740;34.694;33.088;2023-02-04T01:17:01;1.2;1;0.9
76043;PMS7003;64740;34.694;33.088;2023-02-04T01:22:01;1.8;1.7;1.2
76043;PMS7003;64740;34.694;33.088;2023-02-04T01:26:49;1.3;1.2;1
76043;PMS7003;64740;34.694;33.088;2023-02-04T01:31:59;1.2;1.1;0.8
76043;PMS7003;64740;34.694;33.088;2023-02-04T01:36:37;0.8;0.6;0.4
76043;PMS7003;64740;34.694;33.088;2023-02-04T01:42:02;0.6;0.5;0.4
76043;PMS7003;64740;34.694;33.088;2023-02-04T01:46:12;1.1;0.7;0.5
76043;PMS7003;64740;34.694;33.088;2023-02-04T01:51:47;0.6;0.6;0.3
76043;PMS7003;64740;34.694;33.088;2023-02-04T01:56:14;3;3;2.4
76043;PMS7003;64740;34.694;33.088;2023-02-04T02:01:59;3.5;3.1;2.6
76043;PMS7003;64740;34.694;33.088;2023-02-04T02:06:11;1;0.9;0.8
76043;PMS7003;64740;34.694;33.088;2023-02-04T02:11:57;0.6;0.4;0.4
76043;PMS7003;64740;34.694;33.088;2023-02-04T02:16:57;1;0.9;0.6
76043;PMS7003;64740;34.694;33.088;2023-02-04T02:21:48;1.9;1.2;1
76043;PMS7003;64740;34.694;33.088;2023-02-04T02:26:45;2;1.6;1.4
76043;PMS7003;64740;34.694;33.088;2023-02-04T02:31:23;1.3;1.1;0.8
76043;PMS7003;64740;34.694;33.088;2023-02-04T02:36:35;1;0.7;0.7
76043;PMS7003;64740;34.694;33.088;2023-02-04T02:41:11;0.7;0.7;0.5
76043;PMS7003;64740;34.694;33.088;2023-02-04T02:46:45;1;0.6;0.5
76043;PMS7003;64740;34.694;33.088;2023-02-04T02:51:11;0.8;0.6;0.4
76043;PMS7003;64740;34.694;33.088;2023-02-04T02:56:47;1.4;0.9;0.6
76043;PMS7003;64740;34.694;33.088;2023-02-04T03:01:33;0.7;0.7;0.5
76043;PMS7003;64740;34.694;33.088;2023-02-04T03:06:57;0.5;0.5;0.3
76043;PMS7003;64740;34.694;33.088;2023-02-04T03:11:46;0.7;0.5;0.3
76043;PMS7003;64740;34.694;33.088;2023-02-04T03:16:35;0.4;0.3;0.3
76043;PMS7003;64740;34.694;33.088;2023-02-04T03:21:49;0.5;0.5;0.3
76043;PMS7003;64740;34.694;33.088;2023-02-04T03:26:36;0.7;0.3;0.1
76043;PMS7003;64740;34.694;33.088;2023-02-04T03:31:47;0.6;0.2;0.1
76043;PMS7003;64740;34.694;33.088;2023-02-04T03:36:12;0.6;0.4;0.2
76043;PMS7003;64740;34.694;33.088;2023-02-04T03:41:45;1.3;0.9;0.7
76043;PMS7003;64740;34.694;33.088;2023-02-04T03:46:23;3.5;2.9;2.5
76043;PMS7003;64740;34.694;33.088;2023-02-04T03:51:58;9.2;8.7;7.3
76043;PMS7003;64740;34.694;33.088;2023-02-04T03:56:35;6.8;6.3;5.2
76043;PMS7003;64740;34.694;33.088;2023-02-04T04:01:47;6.8;5.8;4.6
76043;PMS7003;64740;34.694;33.088;2023-02-04T04:06:41;5.2;4.8;3.8
76043;PMS7003;64740;34.694;33.088;2023-02-04T04:11:45;4.2;4;3.1
76043;PMS7003;64740;34.694;33.088;2023-02-04T04:16:35;2.9;2.7;2.2
76043;PMS7003;64740;34.694;33.088;2023-02-04T04:21:21;2.7;2.2;1.8
76043;PMS7003;64740;34.694;33.088;2023-02-04T04:26:55;1.8;1.6;1.3
76043;PMS7003;64740;34.694;33.088;2023-02-04T04:31:19;2;1.6;1.2
76043;PMS7003;64740;34.694;33.088;2023-02-04T04:36:47;4;3.6;3
76043;PMS7003;64740;34.694;33.088;2023-02-04T04:41:57;1.4;1.2;1.1
76043;PMS7003;64740;34.694;33.088;2023-02-04T04:46:57;0.5;0.2;0.1
76043;PMS7003;64740;34.694;33.088;2023-02-04T04:51:23;1;0.6;0.5
76043;PMS7003;64740;34.694;33.088;2023-02-04T04:56:57;5.2;4.7;3.8
76043;PMS7003;64740;34.694;33.088;2023-02-04T05:01:33;6.6;5.9;4.6
76043;PMS7003;64740;34.694;33.088;2023-02-04T05:06:21;2.5;2.3;1.9
76043;PMS7003;64740;34.694;33.088;2023-02-04T05:11:25;2.1;1.9;1.6
76043;PMS7003;64740;34.694;33.088;2023-02-04T05:16:43;2;1.7;1.3
76043;PMS7003;64740;34.694;33.088;2023-02-04T05:21:59;2.7;2.1;1.7
76043;PMS7003;64740;34.694;33.088;2023-02-04T05:26:11;2.7;2.7;2.2
76043;PMS7003;64740;34.694;33.088;2023-02-04T05:31:23;3.8;3.2;2.7
76043;PMS7003;64740;34.694;33.088;2023-02-04T05:36:43;6.4;5.1;3.9
76043;PMS7003;64740;34.694;33.088;2023-02-04T05:41:48;2.2;1.8;1.4
76043;PMS7003;64740;34.694;33.088;2023-02-04T05:46:35;2.1;1.4;1.1
76043;PMS7003;64740;34.694;33.088;2023-02-04T05:51:59;1;0.9;0.6
76043;PMS7003;64740;34.694;33.088;2023-02-04T05:56:23;0.9;0.9;0.7
76043;PMS7003;64740;34.694;33.088;2023-02-04T06:01:25;1;0.8;0.6
76043;PMS7003;64740;34.694;33.088;2023-02-04T06:06:45;1.2;0.7;0.5
76043;PMS7003;64740;34.694;33.088;2023-02-04T06:11:23;1.1;0.8;0.6
76043;PMS7003;64740;34.694;33.088;2023-02-04T06:16:34;1.2;0.7;0.5
76043;PMS7003;64740;34.694;33.088;2023-02-04T06:21:33;0.8;0.6;0.5
76043;PMS7003;64740;34.694;33.088;2023-02-04T06:26:12;1.2;0.7;0.5
76043;PMS7003;64740;34.694;33.088;2023-02-04T06:31:59;1.2;0.8;0.7
76043;PMS7003;64740;34.694;33.088;2023-02-04T06:36:11;1.7;0.8;0.7
76043;PMS7003;64740;34.694;33.088;2023-02-04T06:41:21;1.8;0.9;0.8
76043;PMS7003;64740;34.694;33.088;2023-02-04T06:46:57;1.7;1.5;1.1
76043;PMS7003;64740;34.694;33.088;2023-02-04T06:51:41;2;1.8;1.5
76043;PMS7003;64740;34.694;33.088;2023-02-04T06:56:43;3.1;2.2;1.9
76043;PMS7003;64740;34.694;33.088;2023-02-04T07:01:36;1.9;1.5;1.2
76043;PMS7003;64740;34.694;33.088;2023-02-04T07:06:11;2.1;1.8;1.4
76043;PMS7003;64740;34.694;33.088;2023-02-04T07:11:23;1.7;1.3;1.1
76043;PMS7003;64740;34.694;33.088;2023-02-04T07:16:57;1.1;0.7;0.5
76043;PMS7003;64740;34.694;33.088;2023-02-04T07:21:37;1;0.9;0.7
76043;PMS7003;64740;34.694;33.088;2023-02-04T07:26:59;1.1;0.7;0.5
76043;PMS7003;64740;34.694;33.088;2023-02-04T07:31:41;0.7;0.6;0.4
76043;PMS7003;64740;34.694;33.088;2023-02-04T07:36:57;1.5;1;0.8
76043;PMS7003;64740;34.694;33.088;2023-02-04T07:41:25;1.4;1.2;0.9
76043;PMS7003;64740;34.694;33.088;2023-02-04T07:46:37;2;1.6;1.3
76043;PMS7003;64740;34.694;33.088;2023-02-04T07:51:24;2.1;1.6;1.2
76043;PMS7003;64740;34.694;33.088;2023-02-04T07:57:03;2.4;2.3;1.9
76043;PMS7003;64740;34.694;33.088;2023-02-04T08:01:37;2.4;2.3;1.9
76043;PMS7003;64740;34.694;33.088;2023-02-04T08:06:59;2.9;2.5;2.1
76043;PMS7003;64740;34.694;33.088;2023-02-04T08:11:59;2.1;1.5;1.2
76043;PMS7003;64740;34.694;33.088;2023-02-04T08:16:39;2.2;1.6;1.2
76043;PMS7003;64740;34.694;33.088;2023-02-04T08:21:37;1.9;1.7;1.3
76043;PMS7003;64740;34.694;33.088;2023-02-04T08:26:40;2.3;1.9;1.3
76043;PMS7003;64740;34.694;33.088;2023-02-04T08:31:43;2.6;1.5;1.2
76043;PMS7003;64740;34.694;33.088;2023-02-04T08:36:28;1.8;1.4;1.3
76043;PMS7003;64740;34.694;33.088;2023-02-04T08:41:43;2.3;2.2;1.6
76043;PMS7003;64740;34.694;33.088;2023-02-04T08:46:25;2.7;2.1;1.7
76043;PMS7003;64740;34.694;33.088;2023-02-04T08:51:45;1.9;1.7;1.4
76043;PMS7003;64740;34.694;33.088;2023-02-04T08:56:33;2.2;1.9;1.4
76043;PMS7003;64740;34.694;33.088;2023-02-04T09:02:00;2.5;2;1.6
76043;PMS7003;64740;34.694;33.088;2023-02-04T09:06:48;3.3;2.8;2.3
76043;PMS7003;64740;34.694;33.088;2023-02-04T09:12:00;3.1;2.6;2.2
76043;PMS7003;64740;34.694;33.088;2023-02-04T09:16:45;2.3;2;1.4
76043;PMS7003;64740;34.694;33.088;2023-02-04T09:21:24;2.3;1.7;1.3
76043;PMS7003;64740;34.694;33.088;2023-02-04T09:26:48;1.8;1.7;1.3
76043;PMS7003;64740;34.694;33.088;2023-02-04T09:31:12;2;1.5;1.2
76043;PMS7003;64740;34.694;33.088;2023-02-04T09:36:59;1.5;1.4;1.1
76043;PMS7003;64740;34.694;33.088;2023-02-04T09:41:24;1.2;1;0.9
76043;PMS7003;64740;34.694;33.088;2023-02-04T09:46:46;0.9;0.8;0.5
76043;PMS7003;64740;34.694;33.088;2023-02-04T09:51:37;1.1;0.9;0.7
76043;PMS7003;64740;34.694;33.088;2023-02-04T09:57:04;0.7;0.7;0.5
76043;PMS7003;64740;34.694;33.088;2023-02-04T10:01:50;1;0.5;0.4
76043;PMS7003;64740;34.694;33.088;2023-02-04T10:06:47;1.5;0.7;0.5
76043;PMS7003;64740;34.694;33.088;2023-02-04T10:11:55;1.2;0.9;0.8
76043;PMS7003;64740;34.694;33.088;2023-02-04T10:16:38;1.3;1;0.6
76043;PMS7003;64740;34.694;33.088;2023-02-04T10:21:48;1.7;1.4;1.2
76043;PMS7003;64740;34.694;33.088;2023-02-04T10:26:12;1.5;1.4;1.1
76043;PMS7003;64740;34.694;33.088;2023-02-04T10:31:50;1.8;1.4;1.1
76043;PMS7003;64740;34.694;33.088;2023-02-04T10:36:24;1.2;1.2;1
76043;PMS7003;64740;34.694;33.088;2023-02-04T10:42:02;1.3;1;0.8
76043;PMS7003;64740;34.694;33.088;2023-02-04T10:46:34;1;0.9;0.7
76043;PMS7003;64740;34.694;33.088;2023-02-04T10:51:49;1.1;1;0.8
76043;PMS7003;64740;34.694;33.088;2023-02-04T10:56:47;1.3;1;0.8
76043;PMS7003;64740;34.694;33.088;2023-02-04T11:02:00;1.6;1.1;0.9
76043;PMS7003;64740;34.694;33.088;2023-02-04T11:06:22;1.9;1;0.7
76043;PMS7003;64740;34.694;33.088;2023-02-04T11:11:25;0.9;0.9;0.7
76043;PMS7003;64740;34.694;33.088;2023-02-04T11:17:01;1.4;1;0.8
76043;PMS7003;64740;34.694;33.088;2023-02-04T11:21:13;1.6;1.1;0.9
76043;PMS7003;64740;34.694;33.088;2023-02-04T11:26:50;2.1;1.8;1.4
76043;PMS7003;64740;34.694;33.088;2023-02-04T11:32:01;1.5;1.4;1
76043;PMS7003;64740;34.694;33.088;2023-02-04T11:37:04;2.1;1.9;1.6
76043;PMS7003;64740;34.694;33.088;2023-02-04T11:41:37;2.3;1.4;1.1
76043;PMS7003;64740;34.694;33.088;2023-02-04T11:46:59;2.4;1.7;1.4
76043;PMS7003;64740;34.694;33.088;2023-02-04T11:51:13;1.9;1.4;1.1
76043;PMS7003;64740;34.694;33.088;2023-02-04T11:56:37;2.3;1.5;1.3
76043;PMS7003;64740;34.694;33.088;2023-02-04T12:01:15;2.2;1.8;1.3
76043;PMS7003;64740;34.694;33.088;2023-02-04T12:06:19;1.9;1.6;1.3
76043;PMS7003;64740;34.694;33.088;2023-02-04T12:11:34;2.2;2;1.7
76043;PMS7003;64740;34.694;33.088;2023-02-04T12:16:11;2.6;1.9;1.6
76043;PMS7003;64740;34.694;33.088;2023-02-04T12:21:37;2.8;2.3;1.8
76043;PMS7003;64740;34.694;33.088;2023-02-04T12:27:02;2.5;1.9;1.5
76043;PMS7003;64740;34.694;33.088;2023-02-04T12:31:35;1.7;1.4;1.2
76043;PMS7003;64740;34.694;33.088;2023-02-04T12:36:33;2.7;2.4;1.9
76043;PMS7003;64740;34.694;33.088;2023-02-04T12:41:58;2.3;1.9;1.4
76043;PMS7003;64740;34.694;33.088;2023-02-04T12:46:45;1.9;1.7;1.4
76043;PMS7003;64740;34.694;33.088;2023-02-04T12:51:12;2.8;1.5;1.2
76043;PMS7003;64740;34.694;33.088;2023-02-04T12:56:37;1.8;1;0.7
76043;PMS7003;64740;34.694;33.088;2023-02-04T13:01:36;2.3;1.7;1.2
76043;PMS7003;64740;34.694;33.088;2023-02-04T13:06:11;1.8;1.6;1.3
76043;PMS7003;64740;34.694;33.088;2023-02-04T13:11:25;3;2.2;1.6
76043;PMS7003;64740;34.694;33.088;2023-02-04T13:16:39;2.9;2.3;1.6
76043;PMS7003;64740;34.694;33.088;2023-02-04T13:22:02;3;2.1;1.6
76043;PMS7003;64740;34.694;33.088;2023-02-04T13:26:38;2.2;1.6;1.4
76043;PMS7003;64740;34.694;33.088;2023-02-04T13:31:11;2;1.6;1.2
76043;PMS7003;64740;34.694;33.088;2023-02-04T13:36:59;1.5;1.3;1.1
76043;PMS7003;64740;34.694;33.088;2023-02-04T13:41:48;2.1;1.6;1.4
76043;PMS7003;64740;34.694;33.088;2023-02-04T13:46:24;2;1.7;1.4
76043;PMS7003;64740;34.694;33.088;2023-02-04T13:51:35;2.8;2.1;1.7
76043;PMS7003;64740;34.694;33.088;2023-02-04T13:56:11;1.6;1.3;1.1
76043;PMS7003;64740;34.694;33.088;2023-02-04T14:01:50;1.6;1.4;1
76043;PMS7003;64740;34.694;33.088;2023-02-04T14:07:02;1.3;1.2;1
76043;PMS7003;64740;34.694;33.088;2023-02-04T14:11:40;1.9;1.3;1
76043;PMS7003;64740;34.694;33.088;2023-02-04T14:16:48;1.3;1.1;0.9
76043;PMS7003;64740;34.694;33.088;2023-02-04T14:21:40;1.6;1.2;0.9
76043;PMS7003;64740;34.694;33.088;2023-02-04T14:26:51;1.5;1.5;1.2
76043;PMS7003;64740;34.694;33.088;2023-02-04T14:31:50;1.9;1.7;1.5
76043;PMS7003;64740;34.694;33.088;2023-02-04T14:36:44;2.8;2.4;1.9
76043;PMS7003;64740;34.694;33.088;2023-02-04T14:41:50;2.6;2.1;1.8
76043;PMS7003;64740;34.694;33.088;2023-02-04T14:47:00;1.9;1.6;1.3
76043;PMS7003;64740;34.694;33.088;2023-02-04T14:51:26;2.3;2.1;1.8
76043;PMS7003;64740;34.694;33.088;2023-02-04T14:56:59;2.4;2.3;1.9
76043;PMS7003;64740;34.694;33.088;2023-02-04T15:02:00;2.9;2.1;1.8
76043;PMS7003;64740;34.694;33.088;2023-02-04T15:06:48;2.8;2.6;2.2
76043;PMS7003;64740;34.694;33.088;2023-02-04T15:11:46;3.1;2.8;2.1
76043;PMS7003;64740;34.694;33.088;2023-02-04T15:16:38;3.8;3.1;2.7
76043;PMS7003;64740;34.694;33.088;2023-02-04T15:21:48;4.5;3.6;2.9
76043;PMS7003;64740;34.694;33.088;2023-02-04T15:26:38;4.5;3.6;2.9
76043;PMS7003;64740;34.694;33.088;2023-02-04T15:31:44;6.2;5.1;4.1
76043;PMS7003;64740;34.694;33.088;2023-02-04T15:36:26;6.2;5.6;4.3
76043;PMS7003;64740;34.694;33.088;2023-02-04T15:41:48;7.1;6.5;5
76043;PMS7003;64740;34.694;33.088;2023-02-04T15:46:36;7.9;7.5;5.5
76043;PMS7003;64740;34.694;33.088;2023-02-04T15:52:00;7;6.2;4.8
76043;PMS7003;64740;34.694;33.088;2023-02-04T15:56:38;7.7;6.8;5.4
76043;PMS7003;64740;34.694;33.088;2023-02-04T16:01:44;9.2;7.8;5.8
76043;PMS7003;64740;34.694;33.088;2023-02-04T16:06:50;9.2;7.8;6.6
76043;PMS7003;64740;34.694;33.088;2023-02-04T16:11:24;11.3;10.1;8.2
76043;PMS7003;64740;34.694;33.088;2023-02-04T16:16:46;9.4;8.7;6.9
76043;PMS7003;64740;34.694;33.088;2023-02-04T16:21:44;9.5;9;7.3
76043;PMS7003;64740;34.694;33.088;2023-02-04T16:26:42;11.3;10;7.7
76043;PMS7003;64740;34.694;33.088;2023-02-04T16:31:24;11.4;10.5;8.2
76043;PMS7003;64740;34.694;33.088;2023-02-04T16:36:22;12.5;11.5;9
76043;PMS7003;64740;34.694;33.088;2023-02-04T16:41:42;14.2;12.2;9.5
76043;PMS7003;64740;34.694;33.088;2023-02-04T16:46:58;16.3;14.2;11.3
76043;PMS7003;64740;34.694;33.088;2023-02-04T16:51:45;17.4;15.5;12.2
76043;PMS7003;64740;34.694;33.088;2023-02-04T16:56:48;16.8;15.3;12.2
76043;PMS7003;64740;34.694;33.088;2023-02-04T17:01:58;16.3;14.7;11.1
76043;PMS7003;64740;34.694;33.088;2023-02-04T17:06:26;14.2;13.2;10.3
76043;PMS7003;64740;34.694;33.088;2023-02-04T17:11:12;25.3;22.6;15.7
76043;PMS7003;64740;34.694;33.088;2023-02-04T17:16:27;31.7;27.7;18.8
76043;PMS7003;64740;34.694;33.088;2023-02-04T17:21:38;37.5;31.4;20.9
76043;PMS7003;64740;34.694;33.088;2023-02-04T17:26:26;45.7;37;23.6
76043;PMS7003;64740;34.694;33.088;2023-02-04T17:31:56;37.2;31.2;20
76043;PMS7003;64740;34.694;33.088;2023-02-04T17:36:20;27.6;24.3;16.5
76043;PMS7003;64740;34.694;33.088;2023-02-04T17:41:35;30.6;25.9;17.5
76043;PMS7003;64740;34.694;33.088;2023-02-04T17:46:48;19.9;17.2;11.9
76043;PMS7003;64740;34.694;33.088;2023-02-04T17:52:00;20.1;16.5;11.8
76043;PMS7003;64740;34.694;33.088;2023-02-04T17:56:36;17.1;14.6;10.8
76043;PMS7003;64740;34.694;33.088;2023-02-04T18:01:24;14;11.6;8.9
76043;PMS7003;64740;34.694;33.088;2023-02-04T18:06:50;12.3;10.8;8.2
76043;PMS7003;64740;34.694;33.088;2023-02-04T18:11:13;13.9;12.3;9.1
76043;PMS7003;64740;34.694;33.088;2023-02-04T18:16:48;14.9;13.4;10
76043;PMS7003;64740;34.694;33.088;2023-02-04T18:21:58;17.3;15.1;11.4
76043;PMS7003;64740;34.694;33.088;2023-02-04T18:26:58;13.6;12;8.7
76043;PMS7003;64740;34.694;33.088;2023-02-04T18:31:20;12.1;10.6;7.8
76043;PMS7003;64740;34.694;33.088;2023-02-04T18:36:58;12.2;11;7.9
76043;PMS7003;64740;34.694;33.088;2023-02-04T18:41:36;11.9;10.7;7.5
76043;PMS7003;64740;34.694;33.088;2023-02-04T18:46:15;10.5;9.6;7.3
76043;PMS7003;64740;34.694;33.088;2023-02-04T18:51:37;9.4;7.7;6.1
76043;PMS7003;64740;34.694;33.088;2023-02-04T18:56:24;9;7.6;6.3
76043;PMS7003;64740;34.694;33.088;2023-02-04T19:01:13;9.5;8.3;6.5
76043;PMS7003;64740;34.694;33.088;2023-02-04T19:06:26;8.1;7.4;6.1
76043;PMS7003;64740;34.694;33.088;2023-02-04T19:11:36;9.1;7.6;6
76043;PMS7003;64740;34.694;33.088;2023-02-04T19:17:00;8.8;7.4;6
76043;PMS7003;64740;34.694;33.088;2023-02-04T19:21:24;9.1;7.8;6.2
76043;PMS7003;64740;34.694;33.088;2023-02-04T19:26:37;12.9;11;8.1
76043;PMS7003;64740;34.694;33.088;2023-02-04T19:31:59;11;8.9;7.1
76043;PMS7003;64740;34.694;33.088;2023-02-04T19:36:56;9.5;8.3;6.5
76043;PMS7003;64740;34.694;33.088;2023-02-04T19:41:25;6.8;6.1;4.9
76043;PMS7003;64740;34.694;33.088;2023-02-04T19:46:34;6.6;5.6;4.5
76043;PMS7003;64740;34.694;33.088;2023-02-04T19:51:21;7;5.5;4.3
76043;PMS7003;64740;34.694;33.088;2023-02-04T19:56:34;8.7;7.3;5.7
76043;PMS7003;64740;34.694;33.088;2023-02-04T20:01:58;9.1;7.6;5.9
76043;PMS7003;64740;34.694;33.088;2023-02-04T20:06:38;8.8;7.8;6.2
76043;PMS7003;64740;34.694;33.088;2023-02-04T20:12:00;7.6;7.1;5.6
76043;PMS7003;64740;34.694;33.088;2023-02-04T20:16:24;8.6;8;6.2
76043;PMS7003;64740;34.694;33.088;2023-02-04T20:21:12;8.1;7.5;5.7
76043;PMS7003;64740;34.694;33.088;2023-02-04T20:27:00;9.6;8;6.2
76043;PMS7003;64740;34.694;33.088;2023-02-04T20:31:44;8.6;7.9;6.4
76043;PMS7003;64740;34.694;33.088;2023-02-04T20:36:29;9.5;9;6.7
76043;PMS7003;64740;34.694;33.088;2023-02-04T20:41:34;9;8;5.9
76043;PMS7003;64740;34.694;33.088;2023-02-04T20:46:24;7.3;6.4;5.2
76043;PMS7003;64740;34.694;33.088;2023-02-04T20:51:36;7.4;6.4;5.1
76043;PMS7003;64740;34.694;33.088;2023-02-04T20:56:58;6.4;5.9;4.8
76043;PMS7003;64740;34.694;33.088;2023-02-04T21:01:46;6.4;5.1;4
76043;PMS7003;64740;34.694;33.088;2023-02-04T21:07:00;4.8;4;3.2
76043;PMS7003;64740;34.694;33.088;2023-02-04T21:11:48;5.1;3.7;3.1
76043;PMS7003;64740;34.694;33.088;2023-02-04T21:17:00;3.2;2.9;2.3
76043;PMS7003;64740;34.694;33.088;2023-02-04T21:21:24;3.4;2.7;2.3
76043;PMS7003;64740;34.694;33.088;2023-02-04T21:26:36;2.5;2.1;1.5
76043;PMS7003;64740;34.694;33.088;2023-02-04T21:31:24;2.3;1.6;1.2
76043;PMS7003;64740;34.694;33.088;2023-02-04T21:36:56;2.5;2.1;1.7
76043;PMS7003;64740;34.694;33.088;2023-02-04T21:41:36;2.7;2.3;1.9
76043;PMS7003;64740;34.694;33.088;2023-02-04T21:46:58;3.2;2.4;1.8
76043;PMS7003;64740;34.694;33.088;2023-02-04T21:51:58;3.2;3.1;2.5
76043;PMS7003;64740;34.694;33.088;2023-02-04T21:56:46;3.8;3;2.4
76043;PMS7003;64740;34.694;33.088;2023-02-04T22:01:32;3.6;3.2;2.4
76043;PMS7003;64740;34.694;33.088;2023-02-04T22:06:46;3.2;3.2;2.5
76043;PMS7003;64740;34.694;33.088;2023-02-04T22:11:46;4.3;3.5;2.9
76043;PMS7003;64740;34.694;33.088;2023-02-04T22:16:12;4.9;4;3.2
76043;PMS7003;64740;34.694;33.088;2023-02-04T22:21:36;4.5;3.6;2.9
76043;PMS7003;64740;34.694;33.088;2023-02-04T22:26:12;5.2;4.3;3.3
76043;PMS7003;64740;34.694;33.088;2023-02-04T22:31:38;4.7;4.4;3.7
76043;PMS7003;64740;34.694;33.088;2023-02-04T22:36:34;5.1;4.7;4
76043;PMS7003;64740;34.694;33.088;2023-02-04T22:41:58;10;9;7.1
76043;PMS7003;64740;34.694;33.088;2023-02-04T22:46:46;15.7;14.1;10.4
76043;PMS7003;64740;34.694;33.088;2023-02-04T22:51:46;11.4;9.9;7.3
76043;PMS7003;64740;34.694;33.088;2023-02-04T22:57:00;13.7;11.7;8.8
76043;PMS7003;64740;34.694;33.088;2023-02-04T23:01:24;12.6;12.1;9
76043;PMS7003;64740;34.694;33.088;2023-02-04T23:06:48;10.3;8.8;6.6
76043;PMS7003;64740;34.694;33.088;2023-02-04T23:11:12;8.7;7.6;6
76043;PMS7003;64740;34.694;33.088;2023-02-04T23:16:36;7.9;6.9;5.3
76043;PMS7003;64740;34.694;33.088;2023-02-04T23:21:12;4.1;3.4;2.6
76043;PMS7003;64740;34.694;33.088;2023-02-04T23:26:58;4.7;4.1;3.3
76043;PMS7003;64740;34.694;33.088;2023-02-04T23:31:12;4.5;4.1;3.4
76043;PMS7003;64740;34.694;33.088;2023-02-04T23:36:38;2.7;2.5;2.1
76043;PMS7003;64740;34.694;33.088;2023-02-04T23:41:46;3.4;2.5;2
76043;PMS7003;64740;34.694;33.088;2023-02-04T23:46:58;3.3;2.8;2.3
76043;PMS7003;64740;34.694;33.088;2023-02-04T23:51:58;3.7;3.1;2.5
76043;PMS7003;64740;34.694;33.088;2023-02-04T23:56:24;3;2.6;2.2
